Time;durP1;ratioP1;P1;durP2;ratioP2;P2;SDS_P1;SDS_P2;PMS_P1;PMS_P2;Temp;Humidity;BMP_temperature;BMP_pressure;BME280_temperature;BME280_humidity;BME280_pressure;Samples;Min_cycle;Max_cycle;Signal;HPM_P1;HPM_P2
2022/10/28 00:04:09;;;;;;;24.77;17.43;;;12.20;99.90;;;;;;10481189;28;20195;-79
2022/10/28 00:09:30;;;;;;;19.40;16.07;;;12.10;99.90;;;;;;10487672;28;20244;-78
2022/10/28 00:14:51;;;;;;;19.97;15.23;;;12.10;99.90;;;;;;10509149;28;20498;-79
2022/10/28 00:20:14;;;;;;;17.93;15.40;;;12.10;99.90;;;;;;10494286;28;20266;-79
2022/10/28 00:25:35;;;;;;;28.47;20.03;;;12.10;99.90;;;;;;10480988;28;20276;-78
2022/10/28 00:31:05;;;;;;;29.30;23.37;;;12.10;99.90;;;;;;10496520;28;20286;-80
2022/10/28 00:36:30;;;;;;;26.47;21.37;;;12.10;99.90;;;;;;10480760;28;20227;-79
2022/10/28 00:41:55;;;;;;;22.53;19.20;;;12.00;99.90;;;;;;10479134;28;20343;-79
2022/10/28 00:47:26;;;;;;;25.20;19.63;;;12.00;99.90;;;;;;10479298;28;20396;-79
2022/10/28 00:53:01;;;;;;;20.00;17.43;;;12.00;99.90;;;;;;10478716;28;20200;-78
2022/10/28 00:58:25;;;;;;;20.23;15.93;;;12.00;99.90;;;;;;10479805;28;20233;-80
2022/10/28 01:03:46;;;;;;;26.10;19.10;;;12.00;99.90;;;;;;10478310;28;20223;-79
2022/10/28 01:09:07;;;;;;;31.73;23.07;;;12.00;99.90;;;;;;10479061;28;20469;-79
2022/10/28 01:14:49;;;;;;;29.60;22.27;;;11.90;99.90;;;;;;10478310;28;20246;-79
2022/10/28 01:20:31;;;;;;;23.97;20.90;;;11.90;99.90;;;;;;10493820;28;20228;-79
2022/10/28 01:26:22;;;;;;;23.03;19.07;;;11.90;99.90;;;;;;10462515;28;20200;-78
2022/10/28 01:32:21;;;;;;;21.00;17.77;;;11.90;99.90;;;;;;10436464;28;20237;-79
2022/10/28 01:38:13;;;;;;;23.80;18.30;;;11.90;99.90;;;;;;10439429;28;20190;-83
2022/10/28 01:44:06;;;;;;;22.10;17.60;;;11.80;99.90;;;;;;10406366;28;20219;-79
2022/10/28 01:49:33;;;;;;;24.17;17.67;;;11.80;99.90;;;;;;10392254;28;20204;-81
2022/10/28 01:55:03;;;;;;;20.90;16.10;;;11.80;99.90;;;;;;10392574;28;20269;-83
2022/10/28 02:00:25;;;;;;;21.07;17.43;;;11.70;99.90;;;;;;10378758;28;20254;-79
2022/10/28 02:05:49;;;;;;;26.47;19.93;;;11.70;99.90;;;;;;10378396;28;20198;-78
2022/10/28 02:11:31;;;;;;;22.83;18.67;;;11.70;99.90;;;;;;10376760;28;20216;-79
2022/10/28 02:17:02;;;;;;;25.03;20.27;;;11.70;99.90;;;;;;10397239;28;20243;-80
2022/10/28 02:22:49;;;;;;;20.27;16.90;;;11.70;99.90;;;;;;10461400;28;20565;-78
2022/10/28 02:28:36;;;;;;;19.00;16.93;;;11.70;99.90;;;;;;10493178;28;20219;-78
2022/10/28 02:34:03;;;;;;;18.00;16.10;;;11.60;99.90;;;;;;10476184;28;20470;-78
2022/10/28 02:39:40;;;;;;;18.93;16.83;;;11.50;99.90;;;;;;10505442;28;20409;-79
2022/10/28 02:45:15;;;;;;;18.40;16.40;;;11.40;99.90;;;;;;10484099;28;20491;-78
2022/10/28 02:50:40;;;;;;;16.97;14.77;;;11.30;99.90;;;;;;10486853;28;20209;-78
2022/10/28 02:56:05;;;;;;;18.57;14.60;;;11.30;99.90;;;;;;10498117;28;20199;-79
2022/10/28 03:01:26;;;;;;;17.37;15.07;;;11.30;99.90;;;;;;10483233;28;20228;-79
2022/10/28 03:06:47;;;;;;;15.23;13.63;;;11.30;99.90;;;;;;10484465;28;20458;-78
2022/10/28 03:12:08;;;;;;;17.53;14.57;;;11.30;99.90;;;;;;10455818;28;20203;-78
2022/10/28 03:17:30;;;;;;;18.13;16.23;;;11.20;99.90;;;;;;10442175;28;20185;-79
2022/10/28 03:22:51;;;;;;;19.90;17.67;;;11.20;99.90;;;;;;10471482;28;20446;-79
2022/10/28 03:28:12;;;;;;;22.23;18.33;;;11.20;99.90;;;;;;10483442;28;20349;-78
2022/10/28 03:33:34;;;;;;;22.20;17.90;;;11.20;99.90;;;;;;10483574;28;20234;-82
2022/10/28 03:38:55;;;;;;;19.53;17.47;;;11.20;99.90;;;;;;10493229;28;20531;-78
2022/10/28 03:44:16;;;;;;;22.67;17.63;;;11.20;99.90;;;;;;10523026;28;20271;-78
2022/10/28 03:49:37;;;;;;;17.23;15.40;;;11.20;99.90;;;;;;10537308;28;20208;-77
2022/10/28 03:54:58;;;;;;;18.17;15.10;;;11.20;99.90;;;;;;10539358;28;20553;-80
2022/10/28 04:00:19;;;;;;;17.03;14.33;;;11.20;99.90;;;;;;10538969;28;20231;-78
2022/10/28 04:05:41;;;;;;;20.57;17.67;;;11.20;99.90;;;;;;10524831;28;20198;-78
2022/10/28 04:11:02;;;;;;;24.43;18.97;;;11.30;99.90;;;;;;10496621;28;20193;-78
2022/10/28 04:16:23;;;;;;;20.40;16.73;;;11.30;99.90;;;;;;10482683;28;20192;-79
2022/10/28 04:21:44;;;;;;;21.50;16.93;;;11.30;99.90;;;;;;10485670;28;20302;-78
2022/10/28 04:27:06;;;;;;;27.13;21.20;;;11.30;99.90;;;;;;10456797;28;20198;-77
2022/10/28 04:32:27;;;;;;;23.63;19.43;;;11.40;99.90;;;;;;10439533;28;20244;-78
2022/10/28 04:37:53;;;;;;;21.83;18.90;;;11.40;99.90;;;;;;10464869;28;20204;-78
2022/10/28 04:43:15;;;;;;;26.73;21.63;;;11.50;99.90;;;;;;10471829;28;20509;-78
2022/10/28 04:48:36;;;;;;;29.90;24.27;;;11.40;99.90;;;;;;10451080;28;20225;-77
2022/10/28 04:53:57;;;;;;;28.97;23.90;;;11.40;99.90;;;;;;10438720;28;20200;-78
2022/10/28 04:59:18;;;;;;;26.87;22.33;;;11.50;99.90;;;;;;10438633;28;20271;-78
2022/10/28 05:04:39;;;;;;;35.40;28.60;;;11.50;99.90;;;;;;10466347;28;20380;-80
2022/10/28 05:10:01;;;;;;;38.67;30.00;;;11.50;99.90;;;;;;10478884;28;20206;-79
2022/10/28 05:15:25;;;;;;;36.33;27.13;;;11.50;99.90;;;;;;10495129;28;20286;-80
2022/10/28 05:20:51;;;;;;;30.27;24.37;;;11.50;99.90;;;;;;10491943;28;20259;-81
2022/10/28 05:26:12;;;;;;;32.20;25.03;;;11.50;99.90;;;;;;10491458;28;20202;-79
2022/10/28 05:31:33;;;;;;;35.00;27.97;;;11.50;99.90;;;;;;10493520;28;20229;-79
2022/10/28 05:36:55;;;;;;;31.23;24.20;;;11.50;99.90;;;;;;10510922;28;20202;-79
2022/10/28 05:42:16;;;;;;;37.27;28.37;;;11.50;99.90;;;;;;10514072;28;20219;-79
2022/10/28 05:47:47;;;;;;;39.53;26.67;;;11.50;99.90;;;;;;10518385;28;20196;-79
2022/10/28 05:53:08;;;;;;;37.33;24.70;;;11.40;99.90;;;;;;10535041;28;20205;-79
2022/10/28 05:58:30;;;;;;;30.20;23.90;;;11.40;99.90;;;;;;10534945;28;20280;-79
2022/10/28 06:03:51;;;;;;;32.40;23.57;;;11.40;99.90;;;;;;10481762;28;20196;-79
2022/10/28 06:09:12;;;;;;;45.37;30.13;;;11.40;99.90;;;;;;10476426;28;20239;-80
2022/10/28 06:14:34;;;;;;;40.10;27.23;;;11.40;99.90;;;;;;10496772;28;20231;-79
2022/10/28 06:19:55;;;;;;;30.80;23.47;;;11.50;99.90;;;;;;10499153;28;20229;-79
2022/10/28 06:25:17;;;;;;;37.50;27.67;;;11.50;99.90;;;;;;10471488;28;20203;-79
2022/10/28 06:30:38;;;;;;;41.50;29.17;;;11.50;99.90;;;;;;10484258;28;20197;-78
2022/10/28 06:36:00;;;;;;;35.60;25.07;;;11.40;99.90;;;;;;10485164;28;20197;-79
2022/10/28 06:41:21;;;;;;;58.70;38.10;;;11.50;99.90;;;;;;10544113;28;20226;-79
2022/10/28 06:46:42;;;;;;;50.27;33.87;;;11.50;99.90;;;;;;10542166;28;20200;-79
2022/10/28 06:52:03;;;;;;;48.10;30.97;;;11.50;99.90;;;;;;10539104;28;20192;-80
2022/10/28 06:57:24;;;;;;;57.30;37.90;;;11.60;99.90;;;;;;10541930;28;20201;-80
2022/10/28 07:02:51;;;;;;;62.10;41.03;;;11.70;99.90;;;;;;10418436;28;20290;-80
2022/10/28 07:08:13;;;;;;;51.87;37.53;;;11.70;99.90;;;;;;10451930;28;20237;-80
2022/10/28 07:13:34;;;;;;;59.00;39.20;;;11.70;99.90;;;;;;10423387;28;20491;-84
2022/10/28 07:18:55;;;;;;;45.83;32.83;;;11.80;99.90;;;;;;10422656;28;20210;-82
2022/10/28 07:24:16;;;;;;;54.10;36.67;;;11.90;99.90;;;;;;10417384;28;20208;-81
2022/10/28 07:29:38;;;;;;;44.43;32.43;;;12.00;99.90;;;;;;10435547;28;20276;-81
2022/10/28 07:34:59;;;;;;;73.30;53.53;;;12.00;99.90;;;;;;10436931;28;20231;-80
2022/10/28 07:40:21;;;;;;;57.13;38.07;;;12.00;99.90;;;;;;10456314;28;20225;-81
2022/10/28 07:45:42;;;;;;;44.63;34.93;;;12.10;99.90;;;;;;10476334;28;20205;-81
2022/10/28 07:51:05;;;;;;;52.90;38.53;;;12.20;99.90;;;;;;10448407;28;20210;-84
2022/10/28 07:56:26;;;;;;;48.43;36.13;;;12.20;99.90;;;;;;10452145;28;20180;-81
2022/10/28 08:01:47;;;;;;;75.73;50.07;;;12.20;99.90;;;;;;10436614;28;20942;-81
2022/10/28 08:07:08;;;;;;;52.67;37.63;;;12.30;99.90;;;;;;10434779;28;20198;-80
2022/10/28 08:12:29;;;;;;;64.23;42.73;;;12.40;99.90;;;;;;10439773;28;20253;-80
2022/10/28 08:17:52;;;;;;;56.27;40.17;;;12.50;99.90;;;;;;10434122;28;20233;-78
2022/10/28 08:23:13;;;;;;;57.53;38.07;;;12.60;99.90;;;;;;10433399;28;20427;-79
2022/10/28 08:28:35;;;;;;;56.67;40.90;;;12.60;99.90;;;;;;10447591;28;20298;-81
2022/10/28 08:33:56;;;;;;;55.30;38.57;;;12.60;99.90;;;;;;10434667;28;20237;-79
2022/10/28 08:39:17;;;;;;;46.23;33.47;;;12.70;99.90;;;;;;10427902;28;20247;-80
2022/10/28 08:44:53;;;;;;;43.50;31.27;;;12.70;99.90;;;;;;10473725;28;20206;-82
2022/10/28 08:50:17;;;;;;;43.67;31.53;;;12.80;99.90;;;;;;10473402;28;20528;-80
2022/10/28 08:55:44;;;;;;;46.97;35.13;;;12.80;99.90;;;;;;10450488;28;20215;-80
2022/10/28 09:01:12;;;;;;;48.33;35.10;;;12.90;99.90;;;;;;10428111;28;20231;-80
2022/10/28 09:06:34;;;;;;;46.07;32.93;;;12.90;99.90;;;;;;10417265;28;20210;-82
2022/10/28 09:12:10;;;;;;;47.37;34.77;;;12.90;99.90;;;;;;10447875;28;20250;-82
2022/10/28 09:17:52;;;;;;;45.13;33.73;;;13.10;99.90;;;;;;10432394;28;20199;-82
2022/10/28 09:23:33;;;;;;;43.23;31.70;;;13.20;99.90;;;;;;10417519;28;20233;-83
2022/10/28 09:29:30;;;;;;;41.87;31.50;;;13.30;99.90;;;;;;10417438;28;20216;-82
2022/10/28 09:35:12;;;;;;;40.17;31.23;;;13.30;99.90;;;;;;10418424;28;20230;-85
2022/10/28 09:40:35;;;;;;;49.00;34.07;;;13.40;99.90;;;;;;10440419;28;20230;-82
2022/10/28 09:46:14;;;;;;;47.50;33.70;;;13.40;99.90;;;;;;10486462;28;20198;-83
2022/10/28 09:51:50;;;;;;;43.33;32.47;;;13.40;99.90;;;;;;10471287;28;20249;-81
2022/10/28 09:57:11;;;;;;;42.33;29.47;;;13.50;99.90;;;;;;10436659;28;20195;-81
2022/10/28 10:02:34;;;;;;;36.43;27.73;;;13.60;99.90;;;;;;10429964;28;20239;-83
2022/10/28 10:08:04;;;;;;;38.40;27.93;;;13.60;99.90;;;;;;10416392;28;20195;-84
2022/10/28 10:13:34;;;;;;;39.30;29.57;;;13.60;99.90;;;;;;10431259;28;20214;-82
2022/10/28 10:19:00;;;;;;;39.45;30.63;;;13.60;99.90;;;;;;10435492;28;20210;-83
2022/10/28 10:24:24;;;;;;;46.03;32.60;;;13.70;99.90;;;;;;10375266;28;20216;-82
2022/10/28 10:29:49;;;;;;;37.42;28.55;;;13.70;99.90;;;;;;10389892;28;20598;-80
2022/10/28 10:35:12;;;;;;;41.43;29.27;;;13.70;99.90;;;;;;10430598;28;20282;-83
2022/10/28 10:40:40;;;;;;;45.57;30.53;;;13.70;99.90;;;;;;10452808;28;20306;-82
2022/10/28 10:46:11;;;;;;;37.77;29.53;;;13.70;99.90;;;;;;10486112;28;20259;-83
2022/10/28 10:51:32;;;;;;;43.93;31.40;;;13.80;99.90;;;;;;10470877;28;20379;-85
2022/10/28 10:57:05;;;;;;;44.77;31.47;;;13.90;99.90;;;;;;10437088;28;20192;-82
2022/10/28 11:02:33;;;;;;;42.00;29.53;;;13.90;99.90;;;;;;10441545;28;20231;-83
2022/10/28 11:07:57;;;;;;;41.30;29.37;;;14.00;99.90;;;;;;10437476;28;20199;-82
2022/10/28 11:13:25;;;;;;;36.83;26.50;;;14.10;99.90;;;;;;10423529;28;20207;-81
2022/10/28 11:18:49;;;;;;;38.40;29.00;;;14.30;99.90;;;;;;10436741;28;20229;-81
2022/10/28 11:24:19;;;;;;;42.30;29.77;;;14.50;99.90;;;;;;10410404;28;20232;-81
2022/10/28 11:29:41;;;;;;;38.20;30.13;;;14.60;99.90;;;;;;10394005;28;20206;-82
2022/10/28 11:35:14;;;;;;;37.08;27.73;;;14.70;99.90;;;;;;10422546;28;20227;-85
2022/10/28 11:40:48;;;;;;;27.98;20.05;;;;;;;;;;10460630;28;20684;-81
2022/10/28 11:46:17;;;;;;;23.52;18.63;;;17.20;99.90;;;;;;10477631;28;20576;-84
2022/10/28 11:52:20;;;;;;;26.33;18.52;;;18.80;99.90;;;;;;10476264;28;20195;-85
2022/10/28 11:57:50;;;;;;;25.73;18.63;;;;;;;;;;10388041;28;20276;-81
2022/10/28 12:03:11;;;;;;;26.23;17.67;;;20.80;99.90;;;;;;10404655;28;20240;-82
2022/10/28 12:08:38;;;;;;;27.83;18.40;;;19.90;99.90;;;;;;10368408;28;20208;-82
2022/10/28 12:14:27;;;;;;;29.25;18.02;;;19.30;99.90;;;;;;10387302;28;20213;-83
2022/10/28 12:20:00;;;;;;;47.45;22.75;;;18.50;99.90;;;;;;10376298;28;20308;-84
2022/10/28 12:25:25;;;;;;;27.17;18.33;;;19.00;99.90;;;;;;10374483;28;20209;-83
2022/10/28 12:30:50;;;;;;;18.40;13.30;;;20.20;99.90;;;;;;10393663;28;20259;-83
2022/10/28 12:36:31;;;;;;;26.38;15.25;;;21.10;99.90;;;;;;10471913;28;20250;-83
2022/10/28 12:42:11;;;;;;;23.85;15.68;;;21.10;98.50;;;;;;10476660;28;20231;-80
2022/10/28 12:47:45;;;;;;;18.33;13.95;;;21.50;96.80;;;;;;10488199;28;20200;-83
2022/10/28 12:53:29;;;;;;;19.88;12.35;;;21.10;96.40;;;;;;10489153;28;20200;-83
2022/10/28 12:58:58;;;;;;;22.80;12.52;;;20.50;99.20;;;;;;10446709;28;20188;-80
2022/10/28 13:04:19;;;;;;;20.15;15.65;;;20.60;99.30;;;;;;10475449;28;20545;-78
2022/10/28 13:10:02;;;;;;;26.92;18.73;;;19.60;99.90;;;;;;10473568;28;20192;-78
2022/10/28 13:15:58;;;;;;;22.25;17.17;;;19.00;99.90;;;;;;10483027;28;20264;-81
2022/10/28 13:21:50;;;;;;;22.92;15.70;;;18.20;99.90;;;;;;10460110;28;20286;-81
2022/10/28 13:27:13;;;;;;;35.05;21.58;;;17.30;99.90;;;;;;10477180;28;20209;-84
2022/10/28 13:32:40;;;;;;;27.08;19.02;;;16.70;99.90;;;;;;10505137;28;20432;-79
2022/10/28 13:38:08;;;;;;;30.48;21.38;;;16.60;99.90;;;;;;10485614;28;20200;-80
2022/10/28 13:43:48;;;;;;;32.10;22.27;;;16.10;99.90;;;;;;10465871;28;20567;-79
2022/10/28 13:49:37;;;;;;;34.13;22.52;;;15.90;99.90;;;;;;10472018;28;20209;-79
2022/10/28 13:55:10;;;;;;;24.23;17.88;;;15.70;99.90;;;;;;10472834;28;20194;-83
2022/10/28 14:00:32;;;;;;;29.45;21.92;;;15.60;99.90;;;;;;10502702;28;20274;-80
2022/10/28 14:05:57;;;;;;;29.27;21.80;;;15.60;99.90;;;;;;10461212;28;20201;-79
2022/10/28 14:11:23;;;;;;;24.58;18.95;;;15.70;99.90;;;;;;10472999;28;20218;-83
2022/10/28 14:16:45;;;;;;;25.98;18.27;;;15.60;99.90;;;;;;10471825;28;20202;-82
2022/10/28 14:22:07;;;;;;;21.85;17.42;;;15.50;99.90;;;;;;10440607;28;20555;-83
2022/10/28 14:27:38;;;;;;;29.08;22.30;;;15.40;99.90;;;;;;10451152;28;20431;-81
2022/10/28 14:33:17;;;;;;;22.92;17.95;;;15.30;99.90;;;;;;10455090;28;20241;-79
2022/10/28 14:38:57;;;;;;;20.70;15.75;;;15.30;99.90;;;;;;10497992;28;20196;-78
2022/10/28 14:44:56;;;;;;;22.75;16.52;;;15.20;99.90;;;;;;10479530;28;20244;-80
2022/10/28 14:50:22;;;;;;;24.23;16.80;;;15.10;99.90;;;;;;10493857;28;20223;-81
2022/10/28 14:55:50;;;;;;;31.40;22.38;;;15.00;99.90;;;;;;10504371;28;20215;-80
2022/10/28 15:01:25;;;;;;;32.80;25.20;;;14.80;99.90;;;;;;10479513;28;20309;-81
2022/10/28 15:06:50;;;;;;;29.88;22.30;;;14.60;99.90;;;;;;10459237;28;20200;-79
2022/10/28 15:47:22;;;;;;;66.63;41.67;;;13.90;99.90;;;;;;10557071;27;20563;-77
2022/10/28 15:52:55;;;;;;;53.80;35.90;;;13.80;99.90;;;;;;10479589;28;20272;-78
2022/10/28 15:58:29;;;;;;;53.60;39.23;;;13.80;99.90;;;;;;10515069;28;20248;-82
2022/10/28 16:03:51;;;;;;;64.20;44.40;;;13.70;99.90;;;;;;10489284;28;20229;-78
2022/10/28 16:09:40;;;;;;;65.27;47.00;;;13.70;99.90;;;;;;10511001;28;20204;-79
2022/10/28 16:15:01;;;;;;;67.77;47.17;;;13.60;99.90;;;;;;10507745;28;20524;-78
2022/10/28 16:20:28;;;;;;;56.90;42.07;;;13.50;99.90;;;;;;10507926;28;20204;-80
2022/10/28 16:25:49;;;;;;;69.73;48.80;;;13.50;99.90;;;;;;10508967;28;20569;-79
2022/10/28 16:31:15;;;;;;;76.20;52.67;;;13.30;99.90;;;;;;10552832;28;20577;-78
2022/10/28 16:36:36;;;;;;;62.40;45.90;;;13.20;99.90;;;;;;10558320;28;20201;-78
2022/10/28 16:41:58;;;;;;;58.60;42.97;;;13.10;99.90;;;;;;10588599;28;20253;-86
2022/10/28 16:47:21;;;;;;;46.20;34.10;;;13.10;99.90;;;;;;10548508;28;20201;-80
2022/10/28 16:52:42;;;;;;;38.60;30.13;;;12.90;99.90;;;;;;10553848;28;20263;-86
2022/10/28 16:58:03;;;;;;;37.67;29.57;;;13.00;99.90;;;;;;10528097;28;20269;-90
2022/10/28 17:03:24;;;;;;;39.27;32.17;;;12.90;99.90;;;;;;10511093;28;20439;-88
2022/10/28 17:08:45;;;;;;;39.07;31.43;;;12.80;99.90;;;;;;10525781;28;20267;-91
2022/10/28 17:14:21;;;;;;;36.90;30.50;;;12.80;99.90;;;;;;10526738;28;20386;-89
2022/10/28 17:19:44;;;;;;;35.83;28.53;;;12.80;99.90;;;;;;10525889;28;20265;-79
2022/10/28 17:25:07;;;;;;;43.93;29.27;;;12.70;99.90;;;;;;10512757;28;20225;-79
2022/10/28 17:30:29;;;;;;;37.23;29.53;;;12.70;99.90;;;;;;10526324;28;20259;-81
2022/10/28 17:35:50;;;;;;;38.63;28.63;;;12.60;99.90;;;;;;10525408;28;20196;-78
2022/10/28 17:41:11;;;;;;;38.70;30.07;;;12.50;99.90;;;;;;10565854;28;20204;-77
2022/10/28 17:46:32;;;;;;;60.10;40.80;;;12.40;99.90;;;;;;10516570;28;20332;-78
2022/10/28 17:51:53;;;;;;;61.03;39.57;;;12.40;99.90;;;;;;10498310;28;20197;-78
2022/10/28 17:57:14;;;;;;;68.23;44.40;;;12.30;99.90;;;;;;10483323;28;20272;-79
2022/10/28 18:02:35;;;;;;;75.10;47.20;;;12.40;99.90;;;;;;10504198;28;20242;-78
2022/10/28 18:07:57;;;;;;;73.23;47.63;;;;;;;;;;10520805;28;20242;-79
2022/10/28 18:13:18;;;;;;;71.27;41.77;;;12.30;99.90;;;;;;10507271;28;20257;-78
2022/10/28 18:18:40;;;;;;;55.77;37.03;;;12.40;99.90;;;;;;10522719;28;20254;-80
2022/10/28 18:24:04;;;;;;;48.87;31.60;;;12.50;99.90;;;;;;10507176;28;20303;-80
2022/10/28 18:29:26;;;;;;;47.37;31.07;;;12.50;99.90;;;;;;10521033;28;20201;-83
2022/10/28 18:34:47;;;;;;;78.97;44.77;;;12.60;99.90;;;;;;10521840;28;20200;-79
2022/10/28 18:40:09;;;;;;;89.33;48.93;;;12.50;99.90;;;;;;10540546;28;20188;-78
2022/10/28 18:45:30;;;;;;;91.90;50.77;;;12.50;99.90;;;;;;10517714;28;20238;-79
2022/10/28 18:50:59;;;;;;;115.07;63.33;;;12.60;99.90;;;;;;10479834;28;20263;-79
2022/10/28 18:56:23;;;;;;;94.63;53.67;;;12.50;99.90;;;;;;10498094;28;20197;-78
2022/10/28 19:01:45;;;;;;;82.70;49.73;;;12.30;99.90;;;;;;10518401;28;20391;-78
2022/10/28 19:07:06;;;;;;;92.40;58.17;;;12.10;99.90;;;;;;10519728;28;20243;-78
2022/10/28 19:12:28;;;;;;;117.63;73.23;;;12.00;99.90;;;;;;10519906;28;20196;-78
2022/10/28 19:17:51;;;;;;;129.30;76.23;;;12.00;99.90;;;;;;10519553;28;20184;-78
2022/10/28 19:23:13;;;;;;;105.37;62.37;;;11.80;99.90;;;;;;10519301;28;20221;-78
2022/10/28 19:28:46;;;;;;;68.33;44.47;;;11.70;99.90;;;;;;10504205;28;20196;-79
2022/10/28 19:34:09;;;;;;;56.60;38.27;;;11.70;99.90;;;;;;10521306;28;20211;-78
2022/10/28 19:39:31;;;;;;;60.00;37.00;;;;;;;;;;10533709;28;20215;-78
2022/10/28 19:44:52;;;;;;;71.10;43.03;;;;;;;;;;10511365;28;20244;-79
2022/10/28 19:50:13;;;;;;;68.60;41.27;;;;;;;;;;10464326;28;20193;-85
2022/10/28 19:55:35;;;;;;;64.20;37.33;;;;;;;;;;10504506;28;20435;-79
2022/10/28 20:01:07;;;;;;;53.37;30.57;;;;;;;;;;10519122;28;20180;-79
2022/10/28 20:06:30;;;;;;;41.67;25.93;;;;;;;;;;10512485;28;20258;-89
2022/10/28 20:11:52;;;;;;;42.83;25.00;;;;;;;;;;10519347;28;20212;-78
2022/10/28 20:17:14;;;;;;;35.67;24.57;;;12.40;99.90;;;;;;10503861;28;20243;-79
2022/10/28 20:22:35;;;;;;;37.83;24.10;;;12.60;99.90;;;;;;10519846;28;20195;-78
2022/10/28 20:27:58;;;;;;;32.57;20.97;;;12.70;99.90;;;;;;10518911;28;20189;-79
2022/10/28 20:33:19;;;;;;;26.33;18.67;;;12.60;99.90;;;;;;10524682;28;20230;-78
2022/10/28 20:38:40;;;;;;;29.10;18.13;;;12.60;99.90;;;;;;10531988;28;20192;-78
2022/10/28 20:44:02;;;;;;;24.57;17.73;;;12.70;99.90;;;;;;10532001;28;20245;-80
2022/10/28 20:49:23;;;;;;;22.73;16.53;;;12.70;99.90;;;;;;10521686;28;20479;-79
2022/10/28 20:54:44;;;;;;;19.90;14.83;;;12.70;99.90;;;;;;10510555;28;20276;-80
2022/10/28 21:00:06;;;;;;;21.43;16.70;;;12.70;99.90;;;;;;10526043;28;20262;-85
2022/10/28 21:05:29;;;;;;;23.63;18.70;;;12.70;99.90;;;;;;10520001;28;20246;-80
2022/10/28 21:10:50;;;;;;;21.10;16.47;;;12.60;99.90;;;;;;10525079;28;20452;-83
2022/10/28 21:16:11;;;;;;;26.17;20.23;;;12.70;99.90;;;;;;10525115;28;20188;-79
2022/10/28 21:21:33;;;;;;;27.83;20.10;;;12.70;99.90;;;;;;10482162;28;20352;-79
2022/10/28 21:26:54;;;;;;;28.77;17.97;;;12.70;99.90;;;;;;10496160;28;20217;-80
2022/10/28 21:32:15;;;;;;;22.97;17.73;;;12.70;99.90;;;;;;10509299;28;20264;-79
2022/10/28 21:37:36;;;;;;;36.23;20.47;;;12.80;99.90;;;;;;10508529;28;20196;-79
2022/10/28 21:42:57;;;;;;;29.50;21.10;;;12.80;99.90;;;;;;10508301;28;20222;-79
2022/10/28 21:48:18;;;;;;;24.10;19.30;;;12.90;99.90;;;;;;10510118;28;20237;-79
2022/10/28 21:53:40;;;;;;;25.73;19.40;;;12.80;99.90;;;;;;10507985;28;20198;-79
2022/10/28 21:59:01;;;;;;;24.63;17.20;;;12.90;99.90;;;;;;10523027;28;20189;-78
2022/10/28 22:04:22;;;;;;;24.43;17.50;;;12.80;99.90;;;;;;10514515;28;20227;-81
2022/10/28 22:09:43;;;;;;;23.93;17.50;;;12.80;99.90;;;;;;10522290;28;20200;-82
2022/10/28 22:15:05;;;;;;;24.23;18.37;;;12.80;99.90;;;;;;10527305;28;20250;-79
2022/10/28 22:20:26;;;;;;;28.90;18.00;;;12.70;99.90;;;;;;10538023;28;20215;-79
2022/10/28 22:25:47;;;;;;;28.97;15.87;;;12.80;99.90;;;;;;10521915;28;20496;-79
2022/10/28 22:31:10;;;;;;;18.80;14.37;;;12.80;99.90;;;;;;10520828;28;20255;-83
2022/10/28 22:36:32;;;;;;;17.67;13.53;;;12.80;99.90;;;;;;10520388;28;20216;-79
2022/10/28 22:41:53;;;;;;;21.00;14.17;;;12.70;99.90;;;;;;10555516;28;20210;-79
2022/10/28 22:47:14;;;;;;;21.87;14.17;;;12.70;99.90;;;;;;10488822;28;20261;-79
2022/10/28 22:52:35;;;;;;;17.03;12.87;;;12.70;99.90;;;;;;10478126;28;20203;-78
2022/10/28 22:57:56;;;;;;;19.47;12.97;;;12.70;99.90;;;;;;10495928;28;20190;-89
2022/10/28 23:03:17;;;;;;;16.07;12.30;;;12.70;99.90;;;;;;10520480;28;20224;-78
2022/10/28 23:08:41;;;;;;;17.83;13.27;;;12.60;99.90;;;;;;10519924;28;20201;-89
2022/10/28 23:14:02;;;;;;;16.70;12.53;;;12.50;99.90;;;;;;10520925;28;20476;-89
2022/10/28 23:19:22;;;;;;;16.00;12.37;;;12.40;99.90;;;;;;10519445;28;20207;-79
2022/10/28 23:24:44;;;;;;;15.30;12.63;;;;;;;;;;10505133;28;20589;-79
2022/10/28 23:30:06;;;;;;;14.07;10.47;;;;;;;;;;10518875;28;20267;-80
2022/10/28 23:35:28;;;;;;;12.60;9.73;;;;;;;;;;10519179;28;20376;-79
2022/10/28 23:40:53;;;;;;;14.20;10.43;;;;;;;;;;10530188;28;20262;-78
2022/10/28 23:46:15;;;;;;;15.93;12.10;;;;;;;;;;10502673;28;20249;-83
2022/10/28 23:51:36;;;;;;;16.57;12.67;;;;;;;;;;10491318;28;20292;-79
2022/10/28 23:56:58;;;;;;;16.97;13.40;;;;;;;;;;10484263;28;20201;-83
